DEPMA EDDG-ZZZZ
Flight info
| Callsign | DEPMA |
|---|---|
| Flight time | N/A |
| Altitude | |
| Route | |
| Aircraft | C172 |
Departure
| Time | 2026-04-14 14:18 |
|---|---|
| Airport | Münster Osnabrück Airport (EDDG) |
Arrival
| Time | N/A |
|---|---|
| Airport | ZZZZ |
| Time | Latitude | Longitude | Altitude | Speed | Heading |
|---|---|---|---|---|---|
| 2026-04-14 14:14 | 52.13095 | 7.68684 | 162 ft | 0 kts | 359° |
| 2026-04-14 14:15 | 52.13100 | 7.68682 | 162 ft | 4 kts | 339° |
| 2026-04-14 14:15 | 52.13113 | 7.68586 | 162 ft | 14 kts | 270° |
| 2026-04-14 14:16 | 52.13129 | 7.68396 | 162 ft | 20 kts | 313° |
| 2026-04-14 14:16 | 52.13266 | 7.68313 | 162 ft | 21 kts | 342° |
| 2026-04-14 14:16 | 52.13332 | 7.68280 | 163 ft | 0 kts | 342° |
| 2026-04-14 14:17 | 52.13380 | 7.68252 | 164 ft | 14 kts | 339° |
| 2026-04-14 14:17 | 52.13373 | 7.68037 | 163 ft | 43 kts | 251° |
| 2026-04-14 14:17 | 52.13227 | 7.67431 | 253 ft | 65 kts | 249° |
| 2026-04-14 14:17 | 52.13110 | 7.66964 | 389 ft | 69 kts | 249° |
| 2026-04-14 14:18 | 52.12866 | 7.66260 | 629 ft | 79 kts | 223° |
| 2026-04-14 14:18 | 52.12297 | 7.66322 | 874 ft | 96 kts | 139° |
| 2026-04-14 14:18 | 52.12032 | 7.67421 | 998 ft | 114 kts | 99° |
| 2026-04-14 14:18 | 52.12093 | 7.68655 | 973 ft | 108 kts | 76° |
| 2026-04-14 14:19 | 52.12295 | 7.69817 | 947 ft | 108 kts | 72° |
| 2026-04-14 14:19 | 52.12533 | 7.70967 | 857 ft | 107 kts | 69° |
| 2026-04-14 14:19 | 52.12803 | 7.72079 | 798 ft | 106 kts | 64° |
| 2026-04-14 14:19 | 52.13282 | 7.72793 | 821 ft | 91 kts | 6° |
| 2026-04-14 14:20 | 52.13856 | 7.72594 | 776 ft | 85 kts | 309° |
| 2026-04-14 14:20 | 52.14087 | 7.71727 | 556 ft | 84 kts | 273° |
| 2026-04-14 14:20 | 52.13973 | 7.70806 | 367 ft | 83 kts | 250° |
| 2026-04-14 14:20 | 52.13770 | 7.69936 | 234 ft | 78 kts | 251° |
| 2026-04-14 14:21 | 52.13621 | 7.69231 | 164 ft | 54 kts | 253° |
| 2026-04-14 14:21 | 52.13463 | 7.68518 | 248 ft | 73 kts | 248° |
| 2026-04-14 14:21 | 52.13244 | 7.67752 | 480 ft | 77 kts | 245° |
| 2026-04-14 14:21 | 52.12909 | 7.67164 | 690 ft | 71 kts | 202° |
| 2026-04-14 14:22 | 52.12383 | 7.67420 | 695 ft | 91 kts | 143° |
| 2026-04-14 14:22 | 52.12150 | 7.68445 | 657 ft | 109 kts | 84° |
| 2026-04-14 14:22 | 52.12303 | 7.69676 | 668 ft | 113 kts | 75° |
| 2026-04-14 14:22 | 52.12527 | 7.70926 | 612 ft | 116 kts | 72° |
| 2026-04-14 14:23 | 52.12775 | 7.72122 | 699 ft | 104 kts | 67° |
| 2026-04-14 14:23 | 52.13238 | 7.72887 | 797 ft | 94 kts | 24° |
| 2026-04-14 14:23 | 52.13828 | 7.72920 | 867 ft | 87 kts | 321° |
| 2026-04-14 14:23 | 52.14077 | 7.72012 | 753 ft | 90 kts | 281° |
| 2026-04-14 14:24 | 52.14016 | 7.71111 | 562 ft | 80 kts | 251° |
| 2026-04-14 14:24 | 52.13821 | 7.70188 | 334 ft | 90 kts | 253° |
| 2026-04-14 14:24 | 52.13632 | 7.69267 | 167 ft | 73 kts | 254° |
| 2026-04-14 14:24 | 52.13514 | 7.68696 | 162 ft | 38 kts | 250° |
| 2026-04-14 14:25 | 52.13446 | 7.68393 | 164 ft | 22 kts | 252° |
| 2026-04-14 14:25 | 52.13359 | 7.68270 | 163 ft | 17 kts | 161° |
| 2026-04-14 14:25 | 52.13252 | 7.68323 | 162 ft | 15 kts | 163° |
| 2026-04-14 14:25 | 52.13166 | 7.68329 | 162 ft | 12 kts | 263° |
| 2026-04-14 14:26 | 52.13150 | 7.68322 | 162 ft | 0 kts | 86° |